Candia, New Hampshire
Current Conditions -  °F | °C
As of 2:05 PM on Tuesday 27 Jan 2015 (Local Time) from KMHT Reporting Station
Heavy Snow Heavy Snow  
Wind Chill:   Ceiling: 1300
Heat Index: 19°   Visibility: 0.25mi
Dew Point: 14°   Wind: 18mph
Humidity: 81%   Direction: 10°N
Pressure: 29.53"   Gusts: 37mph
Location:  43.08°N, 71.28°W
Report Text: KMHT 271905Z 01016G32KT 1/4SM R35/3000V4000FT +SN BLSN VV013 M07/M10 A2953 RMK AO2 PK WND 35032/1901 TWR VIS 3/4 P0000 T10721100 $
Loading
Personal Weather Stations






























Interactive Weather Map New forecast layout! Learn more

10-Day Weather Forecast

Advertisements
Track Severe Weather on mobile